Athens Ben Epps Airport
KAHN : now visible

Airfield :











YOU CAN JOIN US ON...

 
LOGIN :

Register | Disclaimer

   EN    FR    IT 

 









Legend :    VFR   Marginal VFR   IFR   Intensive IFR   Very Intensive IFR
Visi :
Ceiling :
>= 8 km
>= 3000ft
5 to 8 km
1000 to 3000 ft
1500m to 5 km
500 to 1000 ft
800 to 1500m
200 to 500 ft
< 800m
< 200 ft
Symbols :   Thunderstorms  Fog  Heavy snow  Heavy precipitations  Wind > 20 kt






- Airport Elevation : 808 ft
- IATA code : AHN


KAHN - Athens Ben Epps

CURRENT METAR :
  • 261451Z 18004KT 10SM CLR 27/22 A2993 RMK AO2 SLP129 T02720217 50002 $

EXPIRED METARs :
  • 261351Z 00000KT 10SM CLR 27/21 A2994 RMK AO2 SLP130 T02670211 $
  • 261251Z 00000KT 10SM CLR 23/20 A2994 RMK AO2 SLP134 T02280200 $
  • 261224Z 00000KT 9SM SCT002 22/21 A2994 RMK AO2 T02170206 $
  • 261211Z 00000KT 3SM BR BKN002 22/21 A2994 RMK AO2 T02170206 $
  • 261151Z AUTO 00000KT 1/4SM FG VV002 21/20 A2993 RMK AO2 SLP127 70026 T02060200 10206 20178 53006 $
  • 261122Z AUTO 00000KT 1/4SM FG VV002 20/19 A2992 RMK AO2 T02000194 $
  • 261051Z AUTO 00000KT M1/4SM FG VV002 19/19 A2992 RMK AO2 SLP125 T01940189 $
  • 261044Z AUTO 00000KT 1/4SM FG VV002 19/19 A2992 RMK AO2 T01940189 $
  • 261017Z AUTO 00000KT 8SM OVC003 19/18 A2991 RMK AO2 T01940183 $
  • 261004Z AUTO 00000KT 7SM OVC004 19/18 A2991 RMK AO2 T01940183

TAF KAHN
Valid from the 26 at 14:00 until the 27 at 12:00 UTC


261335Z 2614/2712 00000KT P6SM SCT015
FM261600 24004KT P6SM SCT035 SCT200
FM270200 20004KT P6SM FEW250
FM271000 23005KT P6SM FEW015 SCT100
PROB30 2710/2712 4SM TSRA BR OVC008CB
KZTL FIR / North America



MET'MAP, your aeronautical weather chart ! - Copyright ORBIFLY December 2007 - Disclaimer

ORBIFLY MET'MAP TEAM :

Programming & Development : Alexandra Zaïnal
Original concept : Baudouin d'Aumeries
Technical & hardware support : Manuel Goepfert
Assistance : Marc-Olivier Méhu




SOURCES & CREDITS :

   NOAA       Earth
Advisory